Virton, Belgium
Current Conditions -  °F | °C
As of 6:50 PM on Sunday 25 Jan 2015 (Local Time) from ELLX Reporting Station
Light Snow Light Snow  
Wind Chill: 28°   Ceiling: 4100
Heat Index: 34°   Visibility: 1.2mi
Dew Point: 32°   Wind: 7mph
Humidity: 93%   Direction: 260°W
Pressure: 30.39"   Gusts: NA
Location:  49.57°N, 5.53°E
Report Text: ELLX 251750Z 26006KT 220V280 2000 -SN BR FEW001 SCT034 OVC041 01/00 Q1029 NOSIG
Loading
Personal Weather Stations






























Interactive Weather Map New forecast layout! Learn more

10-Day Weather Forecast

Advertisements
Track Severe Weather on mobile